createdAt,value
2023-01-30T00:01:18.715Z,0.60
2023-01-30T00:03:47.712Z,0.70
2023-01-30T00:06:16.175Z,0.70
2023-01-30T00:08:44.365Z,0.60
2023-01-30T00:11:15.433Z,0.60
2023-01-30T00:13:45.272Z,0.60
2023-01-30T00:16:13.835Z,0.60
2023-01-30T00:18:43.932Z,0.50
2023-01-30T00:21:15.202Z,0.50
2023-01-30T00:23:44.126Z,0.50
2023-01-30T00:26:12.944Z,0.50
2023-01-30T00:28:41.772Z,0.60
2023-01-30T00:31:11.460Z,0.60
2023-01-30T00:33:40.108Z,0.60
2023-01-30T00:36:10.343Z,0.50
2023-01-30T00:38:38.633Z,0.50
2023-01-30T00:41:06.952Z,0.50
2023-01-30T00:43:52.741Z,0.40
2023-01-30T00:46:48.073Z,0.50
2023-01-30T00:49:16.331Z,0.40
2023-01-30T00:51:44.551Z,0.40
2023-01-30T00:54:12.841Z,0.40
2023-01-30T00:56:41.016Z,0.40
2023-01-30T00:59:09.201Z,0.30
2023-01-30T01:01:38.772Z,0.20
2023-01-30T01:04:08.704Z,0.30
2023-01-30T01:06:36.951Z,0.30
2023-01-30T01:09:05.793Z,0.40
2023-01-30T01:11:34.127Z,0.40
2023-01-30T01:14:05.530Z,0.40
2023-01-30T01:16:35.171Z,0.40
2023-01-30T01:19:05.098Z,0.50
2023-01-30T01:21:33.296Z,0.50
2023-01-30T01:24:01.943Z,0.50
2023-01-30T01:26:30.189Z,0.50
2023-01-30T01:28:59.662Z,0.40
2023-01-30T01:31:28.158Z,0.40
2023-01-30T01:33:56.655Z,0.40
2023-01-30T01:39:14.368Z,0.30
2023-01-30T01:41:41.495Z,0.30
2023-01-30T01:44:12.831Z,0.40
2023-01-30T01:46:47.823Z,0.30
2023-01-30T01:49:23.603Z,0.40
2023-01-30T01:51:59.588Z,0.20
2023-01-30T01:54:34.908Z,0.40
2023-01-30T01:57:07.766Z,0.40
2023-01-30T01:59:44.098Z,0.40
2023-01-30T02:02:15.019Z,0.40
2023-01-30T02:05:04.943Z,0.50
2023-01-30T02:07:40.942Z,0.40
2023-01-30T02:10:16.715Z,0.40
2023-01-30T02:12:46.734Z,0.40
2023-01-30T02:15:15.571Z,0.40
2023-01-30T02:17:43.825Z,0.40
2023-01-30T02:20:25.883Z,0.40
2023-01-30T02:23:42.188Z,0.50
2023-01-30T02:27:01.165Z,0.50
2023-01-30T02:30:26.663Z,0.50
2023-01-30T02:33:11.156Z,0.50
2023-01-30T02:35:54.446Z,0.50
2023-01-30T02:38:40.884Z,0.50
2023-01-30T02:41:25.657Z,0.50
2023-01-30T02:44:05.145Z,0.50
2023-01-30T02:46:47.655Z,0.50
2023-01-30T02:49:24.952Z,0.50
2023-01-30T02:51:55.621Z,0.50
2023-01-30T02:54:24.273Z,0.50
2023-01-30T02:56:55.974Z,0.40
2023-01-30T02:59:31.806Z,0.40
2023-01-30T03:02:38.985Z,0.40
2023-01-30T03:05:31.079Z,0.30
2023-01-30T03:08:14.522Z,0.40
2023-01-30T03:10:55.049Z,0.30
2023-01-30T03:13:36.803Z,0.30
2023-01-30T03:16:13.496Z,0.30
2023-01-30T03:18:42.960Z,0.20
2023-01-30T03:21:13.577Z,0.20
2023-01-30T03:23:41.768Z,0.10
2023-01-30T03:26:18.749Z,0.20
2023-01-30T03:28:50.409Z,0.20
2023-01-30T03:31:19.154Z,0.20
2023-01-30T03:33:47.563Z,0.20
2023-01-30T03:36:17.532Z,0.10
2023-01-30T03:38:45.888Z,0.10
2023-01-30T03:41:14.192Z,0.20
2023-01-30T03:43:42.337Z,0.10
2023-01-30T03:46:10.534Z,0.10
2023-01-30T03:48:38.676Z,0.00
2023-01-30T03:51:07.040Z,0.00
2023-01-30T03:53:36.620Z,0.00
2023-01-30T03:56:05.112Z,0.00
2023-01-30T03:58:33.244Z,0.00
2023-01-30T04:01:01.432Z,0.00
2023-01-30T04:03:29.605Z,0.00
2023-01-30T04:05:57.761Z,0.10
2023-01-30T04:08:26.012Z,0.10
2023-01-30T04:10:55.553Z,0.00
2023-01-30T04:13:23.709Z,0.00
2023-01-30T04:15:52.036Z,0.10
2023-01-30T04:18:20.385Z,0.00
2023-01-30T04:20:48.501Z,0.00
2023-01-30T04:23:16.612Z,0.10
2023-01-30T04:25:48.325Z,0.10
2023-01-30T04:28:17.855Z,0.10
2023-01-30T04:30:46.009Z,0.10
2023-01-30T04:33:14.165Z,0.00
2023-01-30T04:35:42.341Z,0.00
2023-01-30T04:38:10.522Z,0.00
2023-01-30T04:40:38.675Z,0.10
2023-01-30T04:43:06.812Z,0.10
2023-01-30T04:45:36.346Z,0.10
2023-01-30T04:48:04.969Z,0.10
2023-01-30T04:50:33.079Z,0.20
2023-01-30T04:53:01.294Z,0.20
2023-01-30T04:55:29.768Z,0.20
2023-01-30T04:57:58.223Z,0.20
2023-01-30T05:00:27.322Z,0.30
2023-01-30T05:02:57.106Z,0.30
2023-01-30T05:05:25.968Z,0.30
2023-01-30T05:07:54.751Z,0.30
2023-01-30T05:10:22.988Z,0.30
2023-01-30T05:12:51.089Z,0.30
2023-01-30T05:15:19.748Z,0.40
2023-01-30T05:17:48.112Z,0.40
2023-01-30T05:20:17.883Z,0.30
2023-01-30T05:22:46.103Z,0.40
2023-01-30T05:25:14.263Z,0.40
2023-01-30T05:27:42.434Z,0.40
2023-01-30T05:30:12.262Z,0.40
2023-01-30T05:32:40.455Z,0.50
2023-01-30T05:35:09.523Z,0.50
2023-01-30T05:37:39.050Z,0.50
2023-01-30T05:40:09.071Z,0.50
2023-01-30T05:42:37.202Z,0.50
2023-01-30T05:45:06.241Z,0.50
2023-01-30T05:47:34.427Z,0.60
2023-01-30T05:50:02.585Z,0.50
2023-01-30T05:52:30.828Z,0.50
2023-01-30T05:55:00.348Z,0.60
2023-01-30T05:57:28.486Z,0.60
2023-01-30T05:59:56.642Z,0.60
2023-01-30T06:02:24.844Z,0.50
2023-01-30T06:04:53.032Z,0.50
2023-01-30T06:07:21.179Z,0.50
2023-01-30T06:09:49.392Z,0.50
2023-01-30T06:12:18.951Z,0.50
2023-01-30T06:14:47.073Z,0.50
2023-01-30T06:17:15.200Z,0.60
2023-01-30T06:19:43.490Z,0.60
2023-01-30T06:22:11.607Z,0.60
2023-01-30T06:24:39.724Z,0.60
2023-01-30T06:27:07.857Z,0.70
2023-01-30T06:29:37.348Z,0.60
2023-01-30T06:32:06.214Z,0.70
2023-01-30T06:34:34.390Z,0.70
2023-01-30T06:37:02.706Z,0.80
2023-01-30T06:39:30.831Z,0.80
2023-01-30T06:41:59.014Z,0.80
2023-01-30T06:44:27.188Z,0.80
2023-01-30T06:46:56.702Z,0.90
2023-01-30T06:49:24.912Z,1.00
2023-01-30T06:51:53.143Z,1.20
2023-01-30T06:54:21.285Z,1.20
2023-01-30T06:56:49.437Z,1.20
2023-01-30T06:59:17.643Z,1.30
2023-01-30T07:01:45.849Z,1.30
2023-01-30T07:04:15.458Z,1.30
2023-01-30T07:06:43.615Z,1.30
2023-01-30T07:09:11.964Z,1.20
2023-01-30T07:11:40.058Z,1.10
2023-01-30T07:14:08.199Z,1.00
2023-01-30T07:16:36.353Z,1.20
2023-01-30T07:19:04.635Z,1.30
2023-01-30T07:21:34.123Z,1.20
2023-01-30T07:24:02.254Z,1.20
2023-01-30T07:26:31.333Z,1.20
2023-01-30T07:28:59.642Z,1.50
2023-01-30T07:31:27.922Z,1.30
2023-01-30T07:33:56.029Z,1.40
2023-01-30T07:36:24.509Z,1.40
2023-01-30T07:38:54.017Z,1.40
2023-01-30T07:41:22.158Z,1.40
2023-01-30T07:43:50.604Z,1.40
2023-01-30T07:46:18.764Z,1.50
2023-01-30T07:48:47.120Z,1.50
2023-01-30T07:51:15.401Z,1.50
2023-01-30T07:53:43.535Z,1.50
2023-01-30T07:56:18.702Z,1.50
2023-01-30T07:58:47.160Z,1.50
2023-01-30T08:01:15.769Z,1.60
2023-01-30T08:03:46.152Z,1.80
2023-01-30T08:06:14.874Z,1.70
2023-01-30T08:08:43.465Z,1.80
2023-01-30T08:11:13.070Z,1.80
2023-01-30T08:13:41.206Z,1.80
2023-01-30T08:16:09.773Z,1.80
2023-01-30T08:18:37.946Z,2.10
2023-01-30T08:21:07.823Z,1.80
2023-01-30T08:23:36.075Z,1.80
2023-01-30T08:26:06.180Z,1.90
2023-01-30T08:28:35.771Z,1.90
2023-01-30T08:31:03.979Z,1.90
2023-01-30T08:33:32.150Z,1.90
2023-01-30T08:36:00.355Z,1.80
2023-01-30T08:38:28.628Z,2.00
2023-01-30T08:40:58.023Z,2.00
2023-01-30T08:43:26.558Z,2.00
2023-01-30T08:45:57.063Z,2.00
2023-01-30T08:48:25.435Z,2.00
2023-01-30T08:50:54.502Z,2.00
2023-01-30T08:53:23.547Z,2.20
2023-01-30T08:55:52.709Z,2.10
2023-01-30T08:58:21.549Z,2.20
2023-01-30T09:00:50.464Z,2.20
2023-01-30T09:03:21.018Z,2.30
2023-01-30T09:05:55.856Z,2.50
2023-01-30T09:08:24.318Z,2.40
2023-01-30T09:10:52.429Z,2.40
2023-01-30T09:13:20.791Z,2.50
2023-01-30T09:15:48.909Z,2.50
2023-01-30T09:18:17.043Z,2.60
2023-01-30T09:20:46.581Z,2.60
2023-01-30T09:23:14.762Z,2.50
2023-01-30T09:25:45.682Z,2.50
2023-01-30T09:28:13.901Z,2.60
2023-01-30T09:30:42.170Z,2.50
2023-01-30T09:33:10.424Z,2.50
2023-01-30T09:35:38.572Z,2.50
2023-01-30T09:38:08.120Z,2.50
2023-01-30T09:40:49.518Z,2.50
2023-01-30T09:43:42.083Z,2.50
2023-01-30T09:46:31.160Z,2.60
2023-01-30T09:49:19.400Z,2.60
2023-01-30T09:52:05.480Z,2.60
2023-01-30T09:54:40.161Z,2.70
2023-01-30T09:57:21.710Z,2.70
2023-01-30T10:00:03.374Z,2.70
2023-01-30T10:02:45.618Z,2.70
2023-01-30T10:05:14.982Z,2.70
2023-01-30T10:08:06.075Z,2.70
2023-01-30T10:10:55.110Z,2.70
2023-01-30T10:13:53.213Z,2.80
2023-01-30T10:16:29.295Z,2.90
2023-01-30T10:19:20.513Z,2.80
2023-01-30T10:22:07.731Z,2.90
2023-01-30T10:24:50.788Z,3.00
2023-01-30T10:27:23.443Z,3.10
2023-01-30T10:29:58.002Z,3.10
2023-01-30T10:32:32.172Z,3.20
2023-01-30T10:35:14.652Z,3.30
2023-01-30T10:37:53.067Z,3.40
2023-01-30T10:40:31.576Z,3.20
2023-01-30T10:43:11.135Z,3.40
2023-01-30T10:45:54.611Z,3.40
2023-01-30T10:48:56.131Z,3.40
2023-01-30T10:51:44.877Z,3.50
2023-01-30T10:54:22.406Z,3.60
2023-01-30T10:57:03.182Z,3.60
2023-01-30T10:59:50.907Z,3.70
2023-01-30T11:02:34.083Z,3.80
2023-01-30T11:05:14.260Z,3.90
2023-01-30T11:07:46.860Z,4.00
2023-01-30T11:10:19.517Z,4.00
2023-01-30T11:12:47.798Z,4.20
2023-01-30T11:15:17.752Z,4.20
2023-01-30T11:17:46.805Z,4.10
2023-01-30T11:20:20.039Z,4.10
2023-01-30T11:22:51.604Z,4.30
2023-01-30T11:25:23.170Z,4.40
2023-01-30T11:27:57.701Z,4.40
2023-01-30T11:30:32.030Z,4.50
2023-01-30T11:33:12.902Z,4.50
2023-01-30T11:35:54.169Z,4.60
2023-01-30T11:38:26.169Z,4.60
2023-01-30T11:41:08.025Z,4.70
2023-01-30T11:43:39.775Z,4.80
2023-01-30T11:46:14.250Z,5.10
2023-01-30T11:49:45.387Z,5.10
2023-01-30T11:51:47.906Z,5.30
2023-01-30T11:54:22.065Z,5.30
2023-01-30T11:56:55.234Z,5.30
2023-01-30T11:59:29.525Z,5.40
2023-01-30T12:02:12.408Z,5.50
2023-01-30T12:04:44.710Z,5.50
2023-01-30T12:07:22.799Z,5.70
2023-01-30T12:09:53.993Z,5.80
2023-01-30T12:12:35.429Z,5.90
2023-01-30T12:15:24.188Z,6.00
2023-01-30T12:18:06.005Z,6.10
2023-01-30T12:20:50.533Z,6.20
2023-01-30T12:23:32.559Z,6.20
2023-01-30T12:26:09.897Z,6.30
2023-01-30T12:28:49.281Z,5.90
2023-01-30T12:31:25.712Z,5.80
2023-01-30T12:33:56.571Z,5.70
2023-01-30T12:36:41.576Z,5.70
2023-01-30T12:39:42.872Z,5.60
2023-01-30T12:42:34.769Z,5.80
2023-01-30T12:45:22.468Z,5.80
2023-01-30T12:48:40.713Z,5.90
2023-01-30T12:51:39.255Z,6.10
2023-01-30T12:54:26.358Z,5.90
2023-01-30T12:57:10.567Z,5.90
2023-01-30T12:59:50.486Z,5.80
2023-01-30T13:02:55.877Z,5.60
2023-01-30T13:05:41.447Z,5.50
2023-01-30T13:08:29.195Z,5.40
2023-01-30T13:11:15.054Z,5.50
2023-01-30T13:13:55.849Z,5.40
2023-01-30T13:16:37.761Z,5.40
2023-01-30T13:19:19.261Z,5.30
2023-01-30T13:22:01.718Z,5.30
2023-01-30T13:24:49.451Z,5.40
2023-01-30T13:27:22.265Z,6.00
2023-01-30T13:29:52.461Z,5.70
2023-01-30T13:32:36.781Z,5.80
2023-01-30T13:35:14.684Z,5.80
2023-01-30T13:37:47.574Z,5.60
2023-01-30T13:40:20.886Z,5.80
2023-01-30T13:42:57.599Z,5.70
2023-01-30T13:45:32.463Z,5.60
2023-01-30T13:48:21.413Z,5.60
2023-01-30T13:51:13.474Z,5.50
2023-01-30T13:53:50.764Z,5.70
2023-01-30T13:56:41.894Z,5.60
2023-01-30T13:59:26.341Z,5.60
2023-01-30T14:02:21.839Z,5.50
2023-01-30T14:04:53.072Z,5.30
2023-01-30T14:07:30.829Z,5.40
2023-01-30T14:10:21.254Z,5.50
2023-01-30T14:12:54.809Z,5.60
2023-01-30T14:15:28.931Z,5.50
2023-01-30T14:18:05.243Z,5.60
2023-01-30T14:20:35.848Z,5.50
2023-01-30T14:23:07.625Z,5.40
2023-01-30T14:25:48.999Z,5.40
2023-01-30T14:28:51.912Z,5.30
2023-01-30T14:31:49.720Z,5.50
2023-01-30T14:34:46.038Z,5.40
2023-01-30T14:38:01.166Z,5.30
2023-01-30T14:40:47.968Z,5.20
2023-01-30T14:43:52.267Z,5.20
2023-01-30T14:46:54.695Z,5.20
2023-01-30T14:49:35.864Z,5.20
2023-01-30T14:52:05.560Z,5.10
2023-01-30T14:54:44.827Z,5.10
2023-01-30T14:57:27.463Z,5.10
2023-01-30T15:00:14.824Z,5.10
2023-01-30T15:02:54.618Z,5.10
2023-01-30T15:05:31.918Z,5.00
2023-01-30T15:08:08.782Z,4.90
2023-01-30T15:11:05.464Z,4.90
2023-01-30T15:14:01.065Z,4.80
2023-01-30T15:17:06.511Z,4.60
2023-01-30T15:20:19.718Z,4.50
2023-01-30T15:23:11.739Z,4.50
2023-01-30T15:26:07.715Z,4.50
2023-01-30T15:28:46.259Z,4.60
2023-01-30T15:31:17.494Z,4.60
2023-01-30T15:33:47.964Z,4.60
2023-01-30T15:36:26.680Z,4.50
2023-01-30T15:39:00.972Z,4.50
2023-01-30T15:41:33.054Z,4.40
2023-01-30T15:44:31.001Z,4.50
2023-01-30T15:47:20.049Z,4.60
2023-01-30T15:50:03.191Z,4.60
2023-01-30T15:52:44.845Z,4.70
2023-01-30T15:55:21.308Z,4.60
2023-01-30T15:57:56.984Z,4.60
2023-01-30T16:00:30.293Z,4.50
2023-01-30T16:03:01.805Z,4.60
2023-01-30T16:05:31.460Z,4.50
2023-01-30T16:08:21.143Z,4.50
2023-01-30T16:10:50.532Z,4.40
2023-01-30T16:13:21.004Z,4.40
2023-01-30T16:15:56.347Z,4.30
2023-01-30T16:18:33.040Z,4.30
2023-01-30T16:21:06.765Z,4.20
2023-01-30T16:23:42.892Z,4.40
2023-01-30T16:26:18.438Z,4.30
2023-01-30T16:28:46.960Z,4.30
2023-01-30T16:31:16.248Z,4.20
2023-01-30T16:33:51.411Z,4.10
2023-01-30T16:36:40.815Z,4.10
2023-01-30T16:39:30.464Z,4.00
2023-01-30T16:42:00.889Z,4.10
2023-01-30T16:44:31.004Z,4.10
2023-01-30T16:47:03.257Z,4.20
2023-01-30T16:49:45.762Z,4.20
2023-01-30T16:52:21.376Z,4.30
2023-01-30T16:54:54.541Z,4.30
2023-01-30T16:57:35.994Z,4.30
2023-01-30T17:00:09.978Z,4.30
2023-01-30T17:02:42.962Z,4.30
2023-01-30T17:05:21.615Z,4.30
2023-01-30T17:07:53.772Z,4.30
2023-01-30T17:11:07.596Z,4.30
2023-01-30T17:13:38.987Z,4.30
2023-01-30T17:16:35.797Z,4.20
2023-01-30T17:19:04.430Z,4.40
2023-01-30T17:21:39.071Z,4.40
2023-01-30T17:24:08.177Z,4.40
2023-01-30T17:26:40.867Z,4.40
2023-01-30T17:29:23.870Z,4.40
2023-01-30T17:31:59.008Z,4.40
2023-01-30T17:34:28.889Z,4.40
2023-01-30T17:36:57.191Z,4.40
2023-01-30T17:39:26.738Z,4.30
2023-01-30T17:41:56.240Z,4.40
2023-01-30T17:44:24.627Z,4.40
2023-01-30T17:46:52.788Z,4.40
2023-01-30T17:49:23.759Z,4.40
2023-01-30T17:51:55.377Z,4.40
2023-01-30T17:54:25.198Z,4.40
2023-01-30T17:57:00.696Z,4.50
2023-01-30T17:59:30.326Z,4.50
2023-01-30T18:01:58.881Z,4.50
2023-01-30T18:04:27.145Z,4.50
2023-01-30T18:07:03.938Z,4.50
2023-01-30T18:09:32.571Z,4.50
2023-01-30T18:12:02.164Z,4.50
2023-01-30T18:14:30.343Z,4.60
2023-01-30T18:17:00.439Z,4.60
2023-01-30T18:19:31.651Z,4.60
2023-01-30T18:22:00.043Z,4.60
2023-01-30T18:24:29.233Z,4.70
2023-01-30T18:26:57.692Z,4.70
2023-01-30T18:29:28.038Z,4.80
2023-01-30T18:31:56.261Z,4.90
2023-01-30T18:34:24.410Z,4.90
2023-01-30T18:36:52.638Z,4.90
2023-01-30T18:39:20.793Z,4.90
2023-01-30T18:41:48.979Z,4.90
2023-01-30T18:44:17.460Z,4.90
2023-01-30T18:46:47.002Z,4.90
2023-01-30T18:49:15.217Z,4.90
2023-01-30T18:51:43.370Z,4.90
2023-01-30T18:54:11.670Z,5.00
2023-01-30T18:56:40.644Z,5.00
2023-01-30T18:59:09.106Z,4.90
2023-01-30T19:01:40.123Z,4.90
2023-01-30T19:04:12.308Z,5.00
2023-01-30T19:06:42.931Z,5.00
2023-01-30T19:09:15.238Z,5.00
2023-01-30T19:12:01.270Z,5.00
2023-01-30T19:14:29.535Z,5.10
2023-01-30T19:16:57.732Z,5.10
2023-01-30T19:19:28.193Z,5.10
2023-01-30T19:21:56.428Z,5.00
2023-01-30T19:24:25.086Z,5.10
2023-01-30T19:26:53.448Z,5.10
2023-01-30T19:29:21.793Z,5.10
2023-01-30T19:31:50.084Z,5.10
2023-01-30T19:34:18.847Z,5.10
2023-01-30T19:36:48.807Z,5.10
2023-01-30T19:39:17.265Z,5.10
2023-01-30T19:41:45.515Z,5.20
2023-01-30T19:44:13.764Z,5.20
2023-01-30T19:46:43.019Z,5.30
2023-01-30T19:49:12.988Z,5.20
2023-01-30T19:51:41.756Z,5.20
2023-01-30T19:54:15.453Z,5.20
2023-01-30T19:56:47.424Z,5.30
2023-01-30T19:59:16.543Z,5.30
2023-01-30T20:01:44.818Z,5.40
2023-01-30T20:04:13.208Z,5.40
2023-01-30T20:06:45.913Z,5.30
2023-01-30T20:09:16.577Z,5.40
2023-01-30T20:11:45.094Z,5.40
2023-01-30T20:14:13.415Z,5.50
2023-01-30T20:16:41.891Z,5.40
2023-01-30T20:19:14.172Z,5.50
2023-01-30T20:21:42.967Z,5.40
2023-01-30T20:24:12.980Z,5.40
2023-01-30T20:26:45.318Z,5.50
2023-01-30T20:29:17.386Z,5.40
2023-01-30T20:31:45.778Z,5.50
2023-01-30T20:34:15.640Z,5.50
2023-01-30T20:36:43.991Z,5.50
2023-01-30T20:39:12.484Z,5.50
2023-01-30T20:41:42.036Z,5.40
2023-01-30T20:44:13.992Z,5.50
2023-01-30T20:46:45.697Z,5.40
2023-01-30T20:49:17.037Z,5.40
2023-01-30T20:51:46.446Z,5.50
2023-01-30T20:54:16.341Z,5.40
2023-01-30T20:56:48.838Z,5.40
2023-01-30T20:59:20.111Z,5.40
2023-01-30T21:01:48.627Z,5.40
2023-01-30T21:04:19.348Z,5.50
2023-01-30T21:06:48.046Z,5.50
2023-01-30T21:09:19.374Z,5.40
2023-01-30T21:11:50.947Z,5.30
2023-01-30T21:14:19.503Z,5.40
2023-01-30T21:16:47.991Z,5.50
2023-01-30T21:19:18.384Z,5.40
2023-01-30T21:21:50.532Z,5.40
2023-01-30T21:24:23.664Z,5.30
2023-01-30T21:26:54.268Z,5.30
2023-01-30T21:29:25.693Z,5.30
2023-01-30T21:31:54.604Z,5.30
2023-01-30T21:34:23.693Z,5.30
2023-01-30T21:37:05.746Z,5.30
2023-01-30T21:39:52.599Z,5.30
2023-01-30T21:42:40.366Z,5.20
2023-01-30T21:45:09.729Z,5.00
2023-01-30T21:47:37.973Z,5.10
2023-01-30T21:50:07.894Z,5.10
2023-01-30T21:52:36.886Z,5.10
2023-01-30T21:55:05.910Z,5.10
2023-01-30T21:57:35.565Z,4.90
2023-01-30T22:00:04.212Z,5.00
2023-01-30T22:02:32.441Z,4.90
2023-01-30T22:05:00.624Z,4.80
2023-01-30T22:07:28.842Z,4.70
2023-01-30T22:09:57.162Z,4.60
2023-01-30T22:12:26.451Z,4.60
2023-01-30T22:14:56.274Z,4.60
2023-01-30T22:17:24.528Z,4.60
2023-01-30T22:19:52.983Z,4.50
2023-01-30T22:22:25.016Z,4.40
2023-01-30T22:24:53.275Z,4.40
2023-01-30T22:27:21.435Z,4.30
2023-01-30T22:29:50.129Z,4.20
2023-01-30T22:32:19.686Z,4.30
2023-01-30T22:34:47.902Z,4.20
2023-01-30T22:37:16.762Z,4.20
2023-01-30T22:39:44.895Z,4.10
2023-01-30T22:42:13.286Z,4.20
2023-01-30T22:44:41.821Z,4.20
2023-01-30T22:47:09.996Z,4.20
2023-01-30T22:49:39.664Z,4.30
2023-01-30T22:52:07.799Z,4.20
2023-01-30T22:54:35.999Z,4.20
2023-01-30T22:57:04.274Z,4.30
2023-01-30T22:59:32.495Z,4.30
2023-01-30T23:02:00.695Z,4.30
2023-01-30T23:04:29.256Z,4.30
2023-01-30T23:06:59.484Z,4.30
2023-01-30T23:09:27.754Z,4.40
2023-01-30T23:12:16.001Z,4.40
2023-01-30T23:14:44.991Z,4.50
2023-01-30T23:17:36.847Z,4.50
2023-01-30T23:20:06.069Z,4.40
2023-01-30T23:22:35.592Z,4.40
2023-01-30T23:25:03.948Z,4.40
2023-01-30T23:27:32.147Z,4.30
2023-01-30T23:30:00.304Z,4.40
2023-01-30T23:32:28.526Z,4.50
2023-01-30T23:34:56.664Z,4.50
2023-01-30T23:37:44.828Z,4.60
2023-01-30T23:40:14.774Z,4.50
2023-01-30T23:42:42.941Z,4.50
2023-01-30T23:45:12.177Z,4.60
2023-01-30T23:47:40.370Z,4.60
2023-01-30T23:50:09.323Z,4.60
2023-01-30T23:52:37.590Z,4.60
2023-01-30T23:55:07.109Z,4.50
2023-01-30T23:57:36.648Z,4.50
